Time;durP1;ratioP1;P1;durP2;ratioP2;P2;SDS_P1;SDS_P2;PMS_P1;PMS_P2;Temp;Humidity;BMP_temperature;BMP_pressure;BME280_temperature;BME280_humidity;BME280_pressure;Samples;Min_cycle;Max_cycle;Signal;HPM_P1;HPM_P2
2021/03/04 05:47:29;;;;;;;13.40;7.32;;;;;;;;;;6165983;22;1670904;-84
2021/03/04 05:50:06;;;;;;;16.77;7.30;;;;;;;;;;6245263;23;20015;-84
2021/03/04 05:52:35;;;;;;;15.27;7.78;;;;;;;;;;6245519;23;20007;-84
2021/03/04 05:55:05;;;;;;;19.15;8.23;;;;;;;;;;6246389;23;20008;-84
2021/03/04 05:57:30;;;;;;;13.65;7.22;;;;;;;;;;6216304;23;20026;-84
2021/03/04 05:59:57;;;;;;;15.48;8.65;;;;;;;;;;6215729;23;20046;-86
2021/03/04 06:02:22;;;;;;;12.80;6.90;;;;;;;;;;6210878;23;20016;-86
2021/03/04 06:04:49;;;;;;;10.48;5.88;;;;;;;;;;6212396;23;19996;-86
2021/03/04 06:07:14;;;;;;;12.43;6.05;;;;;;;;;;6210879;23;20004;-86
2021/03/04 06:09:40;;;;;;;11.95;6.65;;;;;;;;;;6210675;23;20330;-86
2021/03/04 06:12:06;;;;;;;13.70;6.95;;;;;;;;;;6210904;23;20083;-86
2021/03/04 06:14:36;;;;;;;13.98;6.57;;;;;;;;;;6210443;23;20473;-87
2021/03/04 06:17:15;;;;;;;11.25;5.93;;;;;;;;;;6212258;23;20644;-87
2021/03/04 06:19:41;;;;;;;11.13;6.57;;;;;;;;;;6210939;23;20004;-86
2021/03/04 06:22:06;;;;;;;10.45;6.07;;;;;;;;;;6212234;23;20001;-86
2021/03/04 06:24:32;;;;;;;14.63;6.32;;;;;;;;;;6210916;23;20087;-86
2021/03/04 06:26:58;;;;;;;12.02;5.95;;;;;;;;;;6213167;23;19997;-86
2021/03/04 06:29:26;;;;;;;11.18;5.43;;;;;;;;;;6213270;23;20039;-84
2021/03/04 06:32:05;;;;;;;14.13;6.00;;;;;;;;;;6212261;23;20031;-87
2021/03/04 06:34:31;;;;;;;13.90;6.47;;;;;;;;;;6214711;23;20001;-87
2021/03/04 06:36:59;;;;;;;20.83;9.85;;;;;;;;;;6215030;23;20000;-87
2021/03/04 06:39:25;;;;;;;16.48;8.52;;;;;;;;;;6213075;23;20015;-87
2021/03/04 06:42:04;;;;;;;13.85;6.57;;;;;;;;;;6214239;23;20009;-87
2021/03/04 06:44:39;;;;;;;15.32;6.60;;;;;;;;;;6212876;23;20394;-86
2021/03/04 06:47:06;;;;;;;18.17;7.82;;;;;;;;;;6212837;23;20105;-87
2021/03/04 06:49:39;;;;;;;15.02;8.10;;;;;;;;;;6212406;23;20008;-86
2021/03/04 06:52:05;;;;;;;21.45;10.88;;;;;;;;;;6213432;23;20000;-87
2021/03/04 06:54:30;;;;;;;18.20;11.07;;;;;;;;;;6214640;23;20004;-87
2021/03/04 06:56:56;;;;;;;23.52;12.40;;;;;;;;;;6222884;23;20056;-85
2021/03/04 06:59:22;;;;;;;22.67;12.60;;;;;;;;;;6238622;23;20022;-84
2021/03/04 07:01:47;;;;;;;22.15;12.15;;;;;;;;;;6237418;23;20040;-83
2021/03/04 07:04:16;;;;;;;27.38;15.68;;;;;;;;;;6234522;23;20020;-86
2021/03/04 07:06:45;;;;;;;25.50;15.70;;;;;;;;;;6211533;23;20010;-87
2021/03/04 07:09:10;;;;;;;24.00;12.50;;;;;;;;;;6209297;23;20008;-87
2021/03/04 07:11:36;;;;;;;29.40;13.90;;;;;;;;;;6208822;23;20059;-87
2021/03/04 07:14:03;;;;;;;24.88;13.85;;;;;;;;;;6211063;23;20008;-88
2021/03/04 07:16:33;;;;;;;23.20;12.95;;;;;;;;;;6209625;23;20005;-88
2021/03/04 07:19:00;;;;;;;24.40;11.50;;;;;;;;;;6209509;23;20015;-88
2021/03/04 07:21:26;;;;;;;18.30;10.70;;;;;;;;;;6211217;23;20005;-87
2021/03/04 07:26:11;;;;;;;17.27;8.75;;;;;;;;;;5071721;28;20358;-88
2021/03/04 07:28:37;;;;;;;16.40;8.55;;;;;;;;;;5041447;28;20033;-88
2021/03/04 07:31:04;;;;;;;15.73;8.90;;;;;;;;;;5038239;28;20033;-88
2021/03/04 07:35:48;;;;;;;20.88;10.20;;;;;;;;;;5093921;27;20356;-85
2021/03/04 07:38:24;;;;;;;18.83;11.25;;;;;;;;;;5076251;28;20039;-85
2021/03/04 07:41:03;;;;;;;15.45;9.05;;;;;;;;;;5089412;28;20028;-83
2021/03/04 07:43:29;;;;;;;21.00;10.27;;;;;;;;;;5082986;28;20024;-82
2021/03/04 07:45:54;;;;;;;19.48;9.82;;;;;;;;;;5084869;28;20471;-83
2021/03/04 07:48:20;;;;;;;16.38;9.80;;;;;;;;;;5082056;28;20498;-83
2021/03/04 07:50:58;;;;;;;30.52;16.30;;;;;;;;;;5072517;28;20028;-82
2021/03/04 07:53:25;;;;;;;27.05;14.93;;;;;;;;;;5076402;28;20024;-84
2021/03/04 07:55:51;;;;;;;24.88;13.55;;;;;;;;;;5081055;28;20021;-84
2021/03/04 07:58:17;;;;;;;24.42;13.60;;;;;;;;;;5079203;28;20020;-84
2021/03/04 08:00:43;;;;;;;27.33;13.10;;;;;;;;;;5082476;28;20034;-84
2021/03/04 08:03:08;;;;;;;20.10;11.75;;;;;;;;;;5075500;28;20016;-84
2021/03/04 08:07:52;;;;;;;22.52;12.00;;;;;;;;;;5105573;27;20484;-85
2021/03/04 08:10:19;;;;;;;21.30;11.68;;;;;;;;;;5124152;28;20087;-85
2021/03/04 08:12:51;;;;;;;22.58;12.05;;;;;;;;;;5117182;28;20016;-85
2021/03/04 08:15:18;;;;;;;21.30;12.05;;;;;;;;;;5112929;28;20024;-85
2021/03/04 08:17:44;;;;;;;26.08;13.18;;;;;;;;;;5107395;28;20463;-85
2021/03/04 08:20:11;;;;;;;20.23;11.52;;;;;;;;;;5101031;28;20060;-85
2021/03/04 08:22:42;;;;;;;14.95;9.18;;;;;;;;;;5096075;28;20387;-83
2021/03/04 08:25:09;;;;;;;14.75;7.32;;;;;;;;;;5099941;28;20027;-83
2021/03/04 08:27:38;;;;;;;11.95;6.00;;;;;;;;;;5096062;28;20020;-84
2021/03/04 08:30:04;;;;;;;9.40;6.18;;;;;;;;;;5104553;28;20031;-84
2021/03/04 08:32:30;;;;;;;9.20;5.03;;;;;;;;;;5109098;27;20031;-85
2021/03/04 08:37:21;;;;;;;10.27;4.93;;;;;;;;;;5123329;27;20434;-84
2021/03/04 08:39:48;;;;;;;9.38;4.80;;;;;;;;;;5096306;28;20480;-84
2021/03/04 08:42:13;;;;;;;9.25;4.93;;;;;;;;;;5103496;28;20552;-84
2021/03/04 08:44:49;;;;;;;7.15;3.92;;;;;;;;;;5091598;28;20028;-85
2021/03/04 08:47:18;;;;;;;7.20;4.65;;;;;;;;;;5094904;28;20024;-84
2021/03/04 08:49:50;;;;;;;11.75;6.63;;;;;;;;;;5092699;28;20016;-85
2021/03/04 08:52:21;;;;;;;14.32;7.43;;;;;;;;;;5094108;28;20027;-85
2021/03/04 08:54:55;;;;;;;13.27;7.40;;;;;;;;;;5092290;28;20043;-85
2021/03/04 08:57:24;;;;;;;18.08;8.38;;;;;;;;;;5101588;28;20055;-85
2021/03/04 09:00:00;;;;;;;17.25;8.65;;;;;;;;;;5092146;28;20100;-84
2021/03/04 09:02:26;;;;;;;20.63;10.23;;;;;;;;;;5101987;28;20040;-85
2021/03/04 09:04:51;;;;;;;22.08;10.07;;;;;;;;;;5101589;28;20559;-84
2021/03/04 09:07:31;;;;;;;17.83;10.10;;;;;;;;;;5105436;28;20470;-85
2021/03/04 09:10:01;;;;;;;18.90;10.27;;;;;;;;;;5097249;28;20430;-85
2021/03/04 09:12:27;;;;;;;19.88;9.05;;;;;;;;;;5101700;28;20676;-85
2021/03/04 09:14:57;;;;;;;18.02;7.85;;;;;;;;;;5101283;28;20041;-85
2021/03/04 09:17:22;;;;;;;18.25;8.40;;;;;;;;;;5099139;28;20030;-85
2021/03/04 09:19:52;;;;;;;15.73;8.25;;;;;;;;;;5101959;28;20682;-85
2021/03/04 09:22:18;;;;;;;18.60;8.93;;;;;;;;;;5098593;28;20051;-85
2021/03/04 09:24:46;;;;;;;17.55;8.15;;;;;;;;;;5097149;28;20021;-86
2021/03/04 09:27:13;;;;;;;16.20;8.10;;;;;;;;;;5100193;28;20055;-85
2021/03/04 09:29:40;;;;;;;22.38;9.52;;;;;;;;;;5097036;28;20051;-84
2021/03/04 09:32:06;;;;;;;17.05;9.15;;;;;;;;;;5096982;28;20023;-84
2021/03/04 09:34:35;;;;;;;15.60;8.27;;;;;;;;;;5099665;28;20069;-85
2021/03/04 09:37:08;;;;;;;16.20;7.50;;;;;;;;;;5098996;28;20111;-85
2021/03/04 09:39:44;;;;;;;18.63;7.85;;;;;;;;;;5097616;28;20031;-82
2021/03/04 09:42:17;;;;;;;22.73;8.38;;;;;;;;;;5099663;28;20066;-81
2021/03/04 09:44:49;;;;;;;15.05;8.05;;;;;;;;;;5102074;28;20522;-81
2021/03/04 09:49:43;;;;;;;18.20;7.82;;;;;;;;;;5113734;27;721593;-87
2021/03/04 09:52:19;;;;;;;17.75;7.88;;;;;;;;;;5126342;27;20127;-87
2021/03/04 09:54:45;;;;;;;15.18;6.55;;;;;;;;;;5100064;28;20024;-87
2021/03/04 09:57:10;;;;;;;17.65;7.68;;;;;;;;;;5110232;28;20019;-87
2021/03/04 09:59:43;;;;;;;12.43;7.15;;;;;;;;;;5104364;28;20483;-85
2021/03/04 10:02:08;;;;;;;16.25;6.97;;;;;;;;;;5108242;27;20016;-86
2021/03/04 10:04:34;;;;;;;18.02;8.20;;;;;;;;;;5102637;28;20046;-83
2021/03/04 10:07:00;;;;;;;15.13;7.80;;;;;;;;;;5098665;28;20110;-86
2021/03/04 10:09:26;;;;;;;17.95;8.57;;;;;;;;;;5098819;28;20033;-87
2021/03/04 10:11:52;;;;;;;20.90;8.43;;;;;;;;;;5102708;28;20020;-86
2021/03/04 10:14:17;;;;;;;18.48;7.82;;;;;;;;;;5099090;28;20024;-86
2021/03/04 10:16:53;;;;;;;16.55;8.20;;;;;;;;;;5100431;28;20020;-86
2021/03/04 10:19:19;;;;;;;25.10;7.07;;;;;;;;;;5098200;28;20028;-84
2021/03/04 10:21:45;;;;;;;11.93;6.82;;;;;;;;;;5093885;28;20069;-87
2021/03/04 10:24:13;;;;;;;15.18;6.15;;;;;;;;;;5100197;28;20114;-85
2021/03/04 10:26:39;;;;;;;15.07;7.60;;;;;;;;;;5103243;27;20085;-87
2021/03/04 10:29:05;;;;;;;16.20;6.75;;;;;;;;;;5096910;28;20081;-85
2021/03/04 10:31:31;;;;;;;13.73;6.20;;;;;;;;;;5093966;28;20111;-87
2021/03/04 10:33:57;;;;;;;24.27;7.57;;;;;;;;;;5093233;28;20028;-87
2021/03/04 10:36:23;;;;;;;15.30;6.82;;;;;;;;;;5112519;28;20476;-85
2021/03/04 10:38:49;;;;;;;12.38;6.57;;;;;;;;;;5105040;28;20123;-87
2021/03/04 10:41:14;;;;;;;16.00;7.47;;;;;;;;;;5126454;28;20011;-83
2021/03/04 10:43:40;;;;;;;12.77;5.82;;;;;;;;;;5128315;28;20056;-84
2021/03/04 10:46:06;;;;;;;17.85;7.57;;;;;;;;;;5125078;28;20027;-83
2021/03/04 10:48:34;;;;;;;15.25;5.57;;;;;;;;;;5124363;28;20038;-84
2021/03/04 10:50:59;;;;;;;14.27;7.43;;;;;;;;;;5119594;28;20042;-88
2021/03/04 10:53:25;;;;;;;18.15;6.47;;;;;;;;;;5112217;28;20020;-86
2021/03/04 10:55:51;;;;;;;15.10;6.40;;;;;;;;;;5119128;27;20026;-87
2021/03/04 10:58:16;;;;;;;12.90;6.65;;;;;;;;;;5114471;28;20019;-87
2021/03/04 11:00:42;;;;;;;11.88;6.35;;;;;;;;;;5104827;28;20111;-86
2021/03/04 11:03:08;;;;;;;14.02;6.57;;;;;;;;;;5098351;28;20147;-87
2021/03/04 11:05:33;;;;;;;19.08;7.75;;;;;;;;;;5100643;28;20028;-88
2021/03/04 11:07:59;;;;;;;11.73;5.82;;;;;;;;;;5095863;28;20111;-87
2021/03/04 11:10:25;;;;;;;16.48;7.00;;;;;;;;;;5093875;28;20024;-86
2021/03/04 11:12:50;;;;;;;13.82;7.00;;;;;;;;;;5096190;28;20508;-85
2021/03/04 11:15:16;;;;;;;12.57;6.38;;;;;;;;;;5096312;28;20030;-87
2021/03/04 11:17:42;;;;;;;18.77;6.78;;;;;;;;;;5095946;27;20032;-87
2021/03/04 11:20:08;;;;;;;14.45;7.07;;;;;;;;;;5101033;28;20050;-87
2021/03/04 11:22:34;;;;;;;18.65;7.68;;;;;;;;;;5104583;28;20031;-87
2021/03/04 11:25:00;;;;;;;17.95;6.20;;;;;;;;;;5097429;28;20533;-85
2021/03/04 11:27:26;;;;;;;18.38;6.93;;;;;;;;;;5084988;28;20016;-88
2021/03/04 11:29:51;;;;;;;17.52;8.00;;;;;;;;;;5101978;28;20026;-86
2021/03/04 11:32:17;;;;;;;17.90;7.20;;;;;;;;;;5096212;28;20531;-84
2021/03/04 11:34:43;;;;;;;17.98;7.47;;;;;;;;;;5097374;28;20458;-86
2021/03/04 11:37:09;;;;;;;15.88;5.95;;;;;;;;;;5093048;28;20024;-86
2021/03/04 11:39:35;;;;;;;25.23;7.13;;;;;;;;;;5091854;28;20016;-87
2021/03/04 11:42:00;;;;;;;26.15;7.10;;;;;;;;;;5098757;28;20038;-87
2021/03/04 11:44:26;;;;;;;17.00;6.15;;;;;;;;;;5093513;28;20032;-87
2021/03/04 11:46:52;;;;;;;16.88;7.63;;;;;;;;;;5100080;28;20060;-86
2021/03/04 11:49:17;;;;;;;22.58;7.10;;;;;;;;;;5092728;28;20030;-85
2021/03/04 11:51:43;;;;;;;18.42;7.07;;;;;;;;;;5095887;28;20031;-86
2021/03/04 11:54:09;;;;;;;15.07;7.43;;;;;;;;;;5098833;28;20360;-86
2021/03/04 11:56:37;;;;;;;13.38;6.85;;;;;;;;;;5089128;28;20472;-87
2021/03/04 11:59:06;;;;;;;14.73;6.63;;;;;;;;;;5093463;28;20456;-86
2021/03/04 12:01:33;;;;;;;13.57;6.45;;;;;;;;;;5093190;28;20023;-86
2021/03/04 12:03:58;;;;;;;14.68;6.85;;;;;;;;;;5085144;28;20033;-86
2021/03/04 12:06:24;;;;;;;18.10;8.55;;;;;;;;;;5082525;28;20510;-85
2021/03/04 12:08:49;;;;;;;18.08;8.40;;;;;;;;;;5091317;28;20024;-86
2021/03/04 12:11:15;;;;;;;22.38;9.02;;;;;;;;;;5089951;28;20023;-86
2021/03/04 12:13:41;;;;;;;19.00;8.25;;;;;;;;;;5090958;28;20107;-87
2021/03/04 12:16:08;;;;;;;25.05;9.98;;;;;;;;;;5092492;28;20417;-86
2021/03/04 12:20:52;;;;;;;21.08;10.73;;;;;;;;;;5075098;28;20410;-87
2021/03/04 12:23:17;;;;;;;20.35;11.52;;;;;;;;;;5071815;28;20036;-87
2021/03/04 12:25:43;;;;;;;21.73;12.07;;;;;;;;;;5059373;28;20028;-87
2021/03/04 12:28:09;;;;;;;21.00;12.10;;;;;;;;;;5064588;28;20116;-86
2021/03/04 12:30:34;;;;;;;26.20;11.75;;;;;;;;;;5078790;28;20484;-87
2021/03/04 12:33:00;;;;;;;21.40;12.93;;;;;;;;;;5071222;28;20610;-86
2021/03/04 12:35:26;;;;;;;26.52;12.48;;;;;;;;;;5087790;28;20055;-86
2021/03/04 12:37:51;;;;;;;27.95;11.35;;;;;;;;;;5086285;28;20052;-86
2021/03/04 12:40:17;;;;;;;27.17;12.68;;;;;;;;;;5082854;28;20044;-86
2021/03/04 12:42:43;;;;;;;27.98;12.63;;;;;;;;;;5080017;28;20029;-85
2021/03/04 12:45:09;;;;;;;22.92;11.15;;;;;;;;;;5061875;28;20020;-87
2021/03/04 12:47:35;;;;;;;24.60;11.23;;;;;;;;;;5060082;28;20025;-87
2021/03/04 12:50:02;;;;;;;22.63;12.98;;;;;;;;;;5080270;28;20039;-86
2021/03/04 12:54:49;;;;;;;22.33;13.82;;;;;;;;;;5047632;28;20752;-86
2021/03/04 12:57:15;;;;;;;20.30;11.52;;;;;;;;;;5024525;28;20079;-86
2021/03/04 12:59:40;;;;;;;26.45;12.48;;;;;;;;;;5030559;28;20021;-87
2021/03/04 13:02:07;;;;;;;20.92;12.05;;;;;;;;;;5026845;28;20708;-86
2021/03/04 13:04:32;;;;;;;22.60;11.25;;;;;;;;;;5030169;28;20072;-86
2021/03/04 13:06:58;;;;;;;24.27;12.90;;;;;;;;;;5024050;28;20037;-86
2021/03/04 13:09:24;;;;;;;21.90;10.60;;;;;;;;;;5025358;28;20108;-86
2021/03/04 13:11:50;;;;;;;21.67;11.25;;;;;;;;;;5026535;28;20571;-86
2021/03/04 13:14:16;;;;;;;25.02;11.88;;;;;;;;;;5028181;28;20033;-85
2021/03/04 13:16:42;;;;;;;29.30;13.07;;;;;;;;;;5031509;28;20017;-86
2021/03/04 13:19:07;;;;;;;21.90;10.35;;;;;;;;;;5026403;28;20075;-86
2021/03/04 13:21:33;;;;;;;27.38;12.35;;;;;;;;;;5027522;28;20022;-86
2021/03/04 13:23:59;;;;;;;21.50;12.05;;;;;;;;;;5029580;28;20457;-86
2021/03/04 13:26:25;;;;;;;20.20;11.40;;;;;;;;;;5029394;28;20053;-86
2021/03/04 13:28:50;;;;;;;25.30;10.70;;;;;;;;;;5025596;28;20036;-85
2021/03/04 13:31:16;;;;;;;25.90;15.45;;;;;;;;;;5026971;28;20033;-86
2021/03/04 13:33:42;;;;;;;36.63;20.05;;;;;;;;;;5032952;28;20025;-86
2021/03/04 13:36:08;;;;;;;35.15;22.10;;;;;;;;;;5028181;28;20025;-86
2021/03/04 13:38:34;;;;;;;43.13;23.85;;;;;;;;;;5027989;28;20496;-86
2021/03/04 13:41:00;;;;;;;35.70;19.67;;;;;;;;;;5024810;28;21597;-86
2021/03/04 13:43:26;;;;;;;21.83;12.82;;;;;;;;;;5029923;28;20053;-86
2021/03/04 13:45:52;;;;;;;22.45;11.98;;;;;;;;;;5027945;28;20116;-86
2021/03/04 13:48:18;;;;;;;27.40;17.92;;;;;;;;;;5030487;28;20504;-86
2021/03/04 13:50:44;;;;;;;28.77;16.40;;;;;;;;;;5029723;28;20025;-86
2021/03/04 13:53:09;;;;;;;20.10;11.75;;;;;;;;;;5027332;28;20033;-86
2021/03/04 13:55:35;;;;;;;20.48;10.82;;;;;;;;;;5026499;28;20040;-87
2021/03/04 13:58:01;;;;;;;16.92;10.05;;;;;;;;;;5027677;28;20096;-86
2021/03/04 14:00:27;;;;;;;21.85;10.68;;;;;;;;;;5038882;28;20017;-86
2021/03/04 14:02:52;;;;;;;19.13;9.25;;;;;;;;;;5038722;28;20025;-86
2021/03/04 14:07:36;;;;;;;18.73;9.38;;;;;;;;;;5108835;27;20362;-87
2021/03/04 14:10:09;;;;;;;20.42;11.07;;;;;;;;;;5120647;28;20020;-84
2021/03/04 14:12:35;;;;;;;25.70;10.80;;;;;;;;;;5117700;27;20020;-86
2021/03/04 14:15:01;;;;;;;21.40;9.93;;;;;;;;;;5098550;28;20491;-87
2021/03/04 14:17:27;;;;;;;22.17;11.20;;;;;;;;;;5099770;28;20028;-87
2021/03/04 14:19:53;;;;;;;21.08;10.00;;;;;;;;;;5103432;28;20065;-86
2021/03/04 14:22:19;;;;;;;22.42;10.63;;;;;;;;;;5100347;28;19916;-84
2021/03/04 14:24:44;;;;;;;18.83;10.38;;;;;;;;;;5100246;28;20624;-85
2021/03/04 14:27:10;;;;;;;22.42;10.93;;;;;;;;;;5104138;28;20016;-87
2021/03/04 14:29:36;;;;;;;15.75;8.82;;;;;;;;;;5101447;28;20107;-87
2021/03/04 14:32:01;;;;;;;20.15;10.80;;;;;;;;;;5102616;28;20020;-86
2021/03/04 14:34:27;;;;;;;15.55;9.20;;;;;;;;;;5105456;28;20031;-86
2021/03/04 14:36:53;;;;;;;18.73;9.50;;;;;;;;;;5115622;27;20387;-86
2021/03/04 14:39:18;;;;;;;19.77;8.98;;;;;;;;;;5114719;28;20116;-86
2021/03/04 14:41:44;;;;;;;17.98;9.10;;;;;;;;;;5118938;28;20023;-87
2021/03/04 14:44:10;;;;;;;22.25;10.25;;;;;;;;;;5107209;27;20092;-87
2021/03/04 14:46:36;;;;;;;24.30;10.88;;;;;;;;;;5100022;28;20065;-87
2021/03/04 14:49:02;;;;;;;17.73;8.98;;;;;;;;;;5112920;28;20012;-88
2021/03/04 14:51:28;;;;;;;20.05;10.07;;;;;;;;;;5104756;27;20088;-87
2021/03/04 14:53:53;;;;;;;29.65;10.38;;;;;;;;;;5116127;27;20026;-87
2021/03/04 14:56:19;;;;;;;21.83;11.70;;;;;;;;;;5102468;28;20106;-86
2021/03/04 14:58:45;;;;;;;19.50;9.90;;;;;;;;;;5104706;28;20475;-88
2021/03/04 15:01:11;;;;;;;19.80;10.27;;;;;;;;;;5113173;28;20107;-87
2021/03/04 15:03:37;;;;;;;16.73;9.90;;;;;;;;;;5100364;28;20032;-88
2021/03/04 15:06:13;;;;;;;19.92;9.90;;;;;;;;;;5116998;27;20026;-88
2021/03/04 15:08:39;;;;;;;19.33;10.60;;;;;;;;;;5109183;28;20020;-87
2021/03/04 15:11:04;;;;;;;23.65;10.77;;;;;;;;;;5114194;28;20042;-87
2021/03/04 15:13:30;;;;;;;24.02;9.35;;;;;;;;;;5104868;28;20195;-87
2021/03/04 15:15:56;;;;;;;20.50;10.48;;;;;;;;;;5104765;28;20024;-86
2021/03/04 15:18:22;;;;;;;18.25;9.77;;;;;;;;;;5090198;28;20035;-88
2021/03/04 15:20:47;;;;;;;19.50;10.07;;;;;;;;;;5086594;28;20345;-87
2021/03/04 15:23:13;;;;;;;20.60;10.27;;;;;;;;;;5090703;28;20024;-87
2021/03/04 15:25:39;;;;;;;20.77;9.25;;;;;;;;;;5093478;28;20025;-87
2021/03/04 15:28:05;;;;;;;18.80;9.60;;;;;;;;;;5093593;28;20536;-87
2021/03/04 15:30:31;;;;;;;17.90;10.25;;;;;;;;;;5097102;28;20074;-87
2021/03/04 15:33:00;;;;;;;23.13;12.38;;;;;;;;;;5127545;22;20027;-85
2021/03/04 15:35:31;;;;;;;27.33;13.43;;;;;;;;;;5062992;28;20041;-85
2021/03/04 15:38:04;;;;;;;24.20;11.90;;;;;;;;;;5083517;28;20055;-86
2021/03/04 15:40:40;;;;;;;20.45;8.23;;;;;;;;;;5099191;28;20047;-85
2021/03/04 15:43:06;;;;;;;18.20;9.23;;;;;;;;;;5070734;28;20050;-84
2021/03/04 15:45:34;;;;;;;21.58;9.68;;;;;;;;;;5105568;28;20028;-85
2021/03/04 15:48:23;;;;;;;23.73;11.48;;;;;;;;;;5103859;28;20039;-85
2021/03/04 15:50:49;;;;;;;22.48;9.80;;;;;;;;;;5082409;28;20038;-84
2021/03/04 15:53:51;;;;;;;;;;;;;;;;;;;;;
2021/03/04 15:59:32;;;;;;;16.67;9.13;;;;;;;;;;5047152;28;20029;-85
2021/03/04 16:05:23;;;;;;;21.77;10.27;;;;;;;;;;5090511;28;20039;-84
2021/03/04 16:07:51;;;;;;;20.63;10.57;;;;;;;;;;5079356;28;20028;-84
2021/03/04 16:11:01;;;;;;;61.80;34.75;;;;;;;;;;5101670;28;20080;-85
2021/03/04 16:13:46;;;;;;;44.55;28.42;;;;;;;;;;5100163;28;20072;-84
2021/03/04 16:16:44;;;;;;;24.83;16.45;;;;;;;;;;5081586;28;20035;-84
2021/03/04 16:19:34;;;;;;;25.73;14.82;;;;;;;;;;5081222;28;20035;-84
2021/03/04 16:22:41;;;;;;;28.27;12.65;;;;;;;;;;5097815;28;20028;-85
2021/03/04 16:25:11;;;;;;;26.10;12.27;;;;;;;;;;4989941;28;20045;-85
2021/03/04 16:27:40;;;;;;;25.13;12.68;;;;;;;;;;5057871;28;20044;-85
2021/03/04 16:42:26;;;;;;;20.27;12.60;;;;;;;;;;5075045;28;20036;-88
2021/03/04 16:50:49;;;;;;;118.97;60.08;;;;;;;;;;5071335;28;20099;-85
2021/03/04 16:53:17;;;;;;;183.50;97.05;;;;;;;;;;5068387;28;20037;-85
2021/03/04 16:55:43;;;;;;;137.75;79.45;;;;;;;;;;5068930;28;20030;-85
2021/03/04 16:58:09;;;;;;;203.45;104.43;;;;;;;;;;5082247;28;20028;-85
2021/03/04 17:00:35;;;;;;;155.43;77.20;;;;;;;;;;5074957;28;20438;-84
2021/03/04 17:03:07;;;;;;;117.53;57.15;;;;;;;;;;5074208;28;20384;-85
2021/03/04 17:05:33;;;;;;;60.85;28.70;;;;;;;;;;5068820;28;20196;-84
2021/03/04 17:18:05;;;;;;;21.50;11.18;;;;;;;;;;4980219;28;20085;-85
2021/03/04 17:20:50;;;;;;;13.65;6.95;;;;;;;;;;4997683;28;20025;-84
2021/03/04 17:23:43;;;;;;;11.70;6.28;;;;;;;;;;5078121;28;20035;-85
2021/03/04 17:29:18;;;;;;;40.88;26.55;;;;;;;;;;5071701;28;20040;-84
2021/03/04 17:31:47;;;;;;;17.03;11.53;;;;;;;;;;5073049;28;20047;-82
2021/03/04 17:34:25;;;;;;;17.40;10.32;;;;;;;;;;5073623;28;20016;-84
2021/03/04 17:36:54;;;;;;;11.43;6.35;;;;;;;;;;5073724;28;20036;-83
2021/03/04 17:39:22;;;;;;;19.15;8.23;;;;;;;;;;5076284;28;20028;-83
2021/03/04 17:41:48;;;;;;;12.23;6.40;;;;;;;;;;5075237;28;20028;-84
2021/03/04 17:44:14;;;;;;;9.23;5.57;;;;;;;;;;5070398;28;20028;-84
2021/03/04 17:46:40;;;;;;;14.65;5.45;;;;;;;;;;5076463;28;20050;-84
2021/03/04 17:49:08;;;;;;;9.05;5.15;;;;;;;;;;5088445;28;20016;-84
2021/03/04 17:51:35;;;;;;;10.07;4.85;;;;;;;;;;5090461;28;20079;-84
2021/03/04 17:54:01;;;;;;;11.65;5.25;;;;;;;;;;5072992;28;20017;-84
2021/03/04 17:56:26;;;;;;;8.90;4.85;;;;;;;;;;5075832;28;20028;-84
2021/03/04 17:58:52;;;;;;;7.50;5.07;;;;;;;;;;5095518;28;20549;-84
2021/03/04 18:01:23;;;;;;;9.20;4.88;;;;;;;;;;5068488;28;20387;-84
2021/03/04 18:03:48;;;;;;;9.38;5.20;;;;;;;;;;5063897;28;20016;-84
2021/03/04 18:06:14;;;;;;;9.43;5.60;;;;;;;;;;5064430;28;20025;-84
2021/03/04 18:08:40;;;;;;;9.43;5.93;;;;;;;;;;5067020;28;20042;-83
2021/03/04 18:11:05;;;;;;;13.52;6.07;;;;;;;;;;5085489;28;20018;-83
2021/03/04 18:13:31;;;;;;;8.80;5.25;;;;;;;;;;5067506;28;20035;-83
2021/03/04 18:15:57;;;;;;;9.55;5.25;;;;;;;;;;5067961;28;20421;-83
2021/03/04 18:18:27;;;;;;;8.68;6.05;;;;;;;;;;5062672;28;20047;-85
2021/03/04 18:20:53;;;;;;;9.98;6.22;;;;;;;;;;5088274;28;20035;-83
2021/03/04 18:23:19;;;;;;;11.55;6.78;;;;;;;;;;5083473;28;20646;-84
2021/03/04 18:25:45;;;;;;;14.02;7.93;;;;;;;;;;5070245;28;20023;-84
2021/03/04 18:28:10;;;;;;;31.10;17.30;;;;;;;;;;5068478;28;20035;-83
2021/03/04 18:30:36;;;;;;;77.60;36.80;;;;;;;;;;5083021;28;20039;-83
2021/03/04 18:33:04;;;;;;;60.92;28.55;;;;;;;;;;5068068;28;20036;-83
2021/03/04 18:35:30;;;;;;;59.38;28.52;;;;;;;;;;5066685;28;20035;-84
2021/03/04 18:37:56;;;;;;;31.73;14.10;;;;;;;;;;5064998;28;20028;-83
2021/03/04 18:40:22;;;;;;;19.25;10.55;;;;;;;;;;5082576;28;20472;-83
2021/03/04 18:42:47;;;;;;;14.65;8.00;;;;;;;;;;5063871;28;20028;-83
2021/03/04 18:45:13;;;;;;;15.60;9.65;;;;;;;;;;5061584;28;20503;-83
2021/03/04 18:47:44;;;;;;;13.32;8.05;;;;;;;;;;5081823;28;20033;-83
2021/03/04 18:50:10;;;;;;;22.10;11.53;;;;;;;;;;5071482;28;20078;-83
2021/03/04 18:52:37;;;;;;;28.83;17.63;;;;;;;;;;5061860;28;20112;-83
2021/03/04 18:55:03;;;;;;;15.95;8.98;;;;;;;;;;5088990;28;20024;-83
2021/03/04 18:57:29;;;;;;;8.55;5.15;;;;;;;;;;5067026;28;20035;-83
2021/03/04 19:00:23;;;;;;;7.85;5.05;;;;;;;;;;5076849;28;20100;-86
2021/03/04 19:09:28;;;;;;;6.85;3.75;;;;;;;;;;5024255;28;20570;-83
2021/03/04 19:12:18;;;;;;;6.35;3.95;;;;;;;;;;5022392;28;20053;-84
2021/03/04 19:15:05;;;;;;;6.93;4.47;;;;;;;;;;4985709;28;20105;-83
2021/03/04 19:17:30;;;;;;;8.02;4.70;;;;;;;;;;5008297;28;20136;-83
2021/03/04 19:19:57;;;;;;;6.75;4.50;;;;;;;;;;5043243;28;20603;-83
2021/03/04 19:22:23;;;;;;;8.35;5.03;;;;;;;;;;5065047;28;20032;-83
2021/03/04 19:24:49;;;;;;;13.45;4.47;;;;;;;;;;5066343;28;20114;-83
2021/03/04 19:27:15;;;;;;;7.18;4.28;;;;;;;;;;5082141;28;20032;-83
2021/03/04 19:29:41;;;;;;;9.50;4.65;;;;;;;;;;5082851;28;20016;-83
2021/03/04 19:32:07;;;;;;;9.82;4.60;;;;;;;;;;5062467;28;20023;-83
2021/03/04 19:34:32;;;;;;;5.65;4.03;;;;;;;;;;5063096;28;20393;-83
2021/03/04 19:36:58;;;;;;;10.85;4.18;;;;;;;;;;5070746;28;20039;-83
2021/03/04 19:39:24;;;;;;;8.98;4.07;;;;;;;;;;5084626;28;20667;-82
2021/03/04 19:41:49;;;;;;;9.57;4.28;;;;;;;;;;5065230;28;20449;-83
2021/03/04 19:44:15;;;;;;;6.93;4.18;;;;;;;;;;5068396;28;20032;-83
2021/03/04 19:46:41;;;;;;;6.68;3.80;;;;;;;;;;5059837;28;20107;-84
2021/03/04 19:49:06;;;;;;;9.48;4.80;;;;;;;;;;5067003;28;20392;-83
2021/03/04 19:51:32;;;;;;;6.30;4.03;;;;;;;;;;5086381;28;20020;-83
2021/03/04 19:53:58;;;;;;;8.15;4.60;;;;;;;;;;5085180;28;20023;-83
2021/03/04 19:56:24;;;;;;;8.60;5.82;;;;;;;;;;5075278;28;20020;-83
2021/03/04 20:01:09;;;;;;;12.80;5.30;;;;;;;;;;5084210;28;20353;-87
2021/03/04 20:03:34;;;;;;;6.38;4.43;;;;;;;;;;5055049;28;20035;-85
2021/03/04 20:06:00;;;;;;;7.40;4.57;;;;;;;;;;5049311;28;20049;-86
2021/03/04 20:08:26;;;;;;;10.82;5.50;;;;;;;;;;5048652;28;20031;-85
2021/03/04 20:10:52;;;;;;;8.00;5.22;;;;;;;;;;5069572;28;20025;-86
2021/03/04 20:13:17;;;;;;;8.43;5.53;;;;;;;;;;5042845;28;20024;-86
2021/03/04 20:15:43;;;;;;;6.85;4.63;;;;;;;;;;5056063;28;20028;-85
2021/03/04 20:18:09;;;;;;;8.20;5.18;;;;;;;;;;5044396;28;20067;-86
2021/03/04 20:20:34;;;;;;;8.52;5.10;;;;;;;;;;5048093;28;20025;-86
2021/03/04 20:23:00;;;;;;;7.93;5.18;;;;;;;;;;5068366;28;20032;-85
2021/03/04 20:25:26;;;;;;;7.32;5.25;;;;;;;;;;5052515;28;20847;-86
2021/03/04 20:27:51;;;;;;;6.55;4.38;;;;;;;;;;5057762;28;20742;-86
2021/03/04 20:30:17;;;;;;;7.82;4.88;;;;;;;;;;5043753;28;20144;-86
2021/03/04 20:32:43;;;;;;;9.65;5.30;;;;;;;;;;5053524;28;20024;-87
2021/03/04 20:35:09;;;;;;;9.60;5.07;;;;;;;;;;5038462;28;20167;-87
2021/03/04 20:37:35;;;;;;;8.13;4.60;;;;;;;;;;5051613;28;20024;-86
2021/03/04 20:40:01;;;;;;;7.95;5.20;;;;;;;;;;5052593;28;20033;-86
2021/03/04 20:42:26;;;;;;;9.65;4.93;;;;;;;;;;5035979;28;20029;-86
2021/03/04 20:44:52;;;;;;;8.20;5.45;;;;;;;;;;5050028;28;20495;-86
2021/03/04 20:47:18;;;;;;;10.23;5.53;;;;;;;;;;5040914;28;20155;-86
2021/03/04 20:49:44;;;;;;;8.18;4.97;;;;;;;;;;5072067;28;20029;-86
2021/03/04 20:52:10;;;;;;;9.88;5.30;;;;;;;;;;5038610;28;20451;-86
2021/03/04 20:54:36;;;;;;;10.68;6.20;;;;;;;;;;5061883;28;20028;-87
2021/03/04 20:57:01;;;;;;;9.57;5.55;;;;;;;;;;5043998;28;20820;-86
2021/03/04 20:59:28;;;;;;;7.85;5.00;;;;;;;;;;5042966;28;20598;-88
2021/03/04 21:01:54;;;;;;;9.40;5.72;;;;;;;;;;5044804;28;20025;-86
2021/03/04 21:04:19;;;;;;;10.00;5.82;;;;;;;;;;5043223;28;20108;-86
2021/03/04 21:06:45;;;;;;;8.95;6.70;;;;;;;;;;5041407;28;20021;-85
2021/03/04 21:09:11;;;;;;;10.50;6.45;;;;;;;;;;5041805;28;20123;-85
2021/03/04 21:11:36;;;;;;;12.35;6.53;;;;;;;;;;5030956;28;20018;-87
2021/03/04 21:14:02;;;;;;;10.90;6.88;;;;;;;;;;5026483;28;20029;-85
2021/03/04 21:16:28;;;;;;;12.52;7.13;;;;;;;;;;5027013;28;20362;-86
2021/03/04 21:18:53;;;;;;;12.27;8.05;;;;;;;;;;5046202;28;20492;-85
2021/03/04 21:21:20;;;;;;;10.73;6.43;;;;;;;;;;5062706;28;20027;-86
2021/03/04 21:23:45;;;;;;;10.82;6.63;;;;;;;;;;5063567;28;20099;-85